Time;durP1;ratioP1;P1;durP2;ratioP2;P2;SDS_P1;SDS_P2;PMS_P1;PMS_P2;Temp;Humidity;BMP_temperature;BMP_pressure;BME280_temperature;BME280_humidity;BME280_pressure;Samples;Min_cycle;Max_cycle;Signal;HPM_P1;HPM_P2
2022/04/03 00:01:18;;;;;;;12.68;9.23;;;;;;;2.35;77.31;96630.47;4984509;28;20066;-82
2022/04/03 00:04:14;;;;;;;9.70;8.55;;;;;;;2.32;77.27;96628.97;4982896;28;20061;-81
2022/04/03 00:06:54;;;;;;;9.80;8.45;;;;;;;2.33;77.37;96624.63;4983775;28;20065;-82
2022/04/03 00:09:48;;;;;;;11.25;8.82;;;;;;;2.33;77.63;96625.44;4984004;28;20050;-82
2022/04/03 00:15:09;;;;;;;11.25;8.70;;;;;;;2.31;76.20;96632.47;4981489;28;20098;-82
2022/04/03 00:17:42;;;;;;;10.68;8.07;;;;;;;2.26;75.29;96630.28;4982354;28;20498;-82
2022/04/03 00:20:16;;;;;;;10.60;7.68;;;;;;;2.20;74.44;96630.78;4965737;28;20417;-81
2022/04/03 00:22:59;;;;;;;9.45;7.50;;;;;;;2.19;75.52;96630.94;4981784;28;20069;-82
2022/04/03 00:25:42;;;;;;;9.37;7.17;;;;;;;2.22;75.97;96628.09;4985725;28;20055;-82
2022/04/03 00:28:14;;;;;;;10.65;8.30;;;;;;;2.21;76.58;96634.22;4981088;28;20360;-82
2022/04/03 00:30:44;;;;;;;9.07;7.00;;;;;;;2.21;75.52;96629.88;4980777;28;20054;-81
2022/04/03 00:33:14;;;;;;;10.32;8.10;;;;;;;2.21;75.99;96636.78;4980037;28;20486;-81
2022/04/03 00:35:47;;;;;;;10.52;8.43;;;;;;;2.21;76.66;96626.50;4980256;28;20047;-83
2022/04/03 00:38:16;;;;;;;10.27;8.25;;;;;;;2.22;76.14;96635.81;4980654;28;20557;-82
2022/04/03 00:40:48;;;;;;;9.27;7.75;;;;;;;2.21;76.28;96636.78;4981327;28;20496;-81
2022/04/03 00:43:26;;;;;;;11.75;7.72;;;;;;;2.20;74.76;96640.28;4972463;28;20059;-82
2022/04/03 00:46:00;;;;;;;10.52;8.40;;;;;;;2.18;76.12;96637.03;4968028;29;20071;-81
2022/04/03 00:48:33;;;;;;;12.77;8.43;;;;;;;2.19;76.46;96636.91;4968800;28;20449;-81
2022/04/03 00:51:04;;;;;;;11.98;9.45;;;;;;;2.18;76.42;96634.44;4967276;29;20297;-82
2022/04/03 00:53:35;;;;;;;10.68;9.45;;;;;;;2.17;77.38;96635.41;4967257;28;20065;-81
2022/04/03 00:56:07;;;;;;;10.45;9.10;;;;;;;2.20;77.71;96635.94;4971499;28;20489;-82
2022/04/03 00:58:41;;;;;;;13.60;9.40;;;;;;;2.23;77.47;96640.00;4967202;29;20065;-81
2022/04/03 01:01:10;;;;;;;9.48;8.00;;;;;;;2.21;76.13;96639.34;4966345;29;20067;-82
2022/04/03 01:03:41;;;;;;;10.73;9.32;;;;;;;2.20;76.30;96640.28;4966745;28;20086;-82
2022/04/03 01:06:11;;;;;;;9.95;8.48;;;;;;;2.21;76.67;96639.34;4966669;29;20047;-82
2022/04/03 01:08:42;;;;;;;11.00;8.88;;;;;;;2.21;76.56;96640.16;4967291;28;20070;-82
2022/04/03 01:11:13;;;;;;;11.73;9.30;;;;;;;2.21;77.09;96637.59;4971340;29;20048;-82
2022/04/03 01:13:52;;;;;;;11.38;8.15;;;;;;;2.21;77.21;96641.94;4969052;28;20059;-81
2022/04/03 01:16:22;;;;;;;9.75;8.45;;;;;;;2.23;77.29;96642.59;5042265;23;20043;-86
2022/04/03 01:18:53;;;;;;;10.55;8.15;;;;;;;2.24;77.67;96637.31;4982197;28;20038;-86
2022/04/03 01:21:21;;;;;;;9.30;7.45;;;;;;;2.26;77.18;96647.50;4981551;28;20031;-85
2022/04/03 01:24:01;;;;;;;9.88;7.90;;;;;;;2.27;76.81;96646.53;4981384;28;20107;-86
2022/04/03 01:26:32;;;;;;;10.80;8.25;;;;;;;2.29;77.02;96644.66;4980628;28;20099;-84
2022/04/03 02:03:58;;;;;;;11.55;8.15;;;;;;;2.06;75.36;96662.84;4960323;28;20032;-84
2022/04/03 02:06:27;;;;;;;8.50;6.90;;;;;;;2.01;73.96;96667.56;4960964;28;20059;-84
2022/04/03 02:08:55;;;;;;;10.07;7.80;;;;;;;1.98;75.25;96656.69;4961100;28;20091;-85
2022/04/03 02:11:22;;;;;;;10.65;8.35;;;;;;;2.02;76.89;96666.59;4961136;28;20032;-84
2022/04/03 02:13:51;;;;;;;11.23;8.70;;;;;;;2.05;76.99;96666.34;4961002;28;20079;-84
2022/04/03 02:27:09;;;;;;;9.18;7.50;;;;;;;2.16;76.70;96662.06;5411351;23;20095;-88
2022/04/03 02:29:39;;;;;;;9.75;7.97;;;;;;;2.17;76.65;96671.44;4959765;29;20524;-85
2022/04/03 02:32:08;;;;;;;9.75;8.27;;;;;;;2.15;76.77;96668.16;4959221;28;20075;-86
2022/04/03 02:34:36;;;;;;;10.52;7.35;;;;;;;2.15;76.52;96668.16;4960193;28;20066;-87
2022/04/03 02:37:08;;;;;;;11.65;7.97;;;;;;;2.15;76.70;96673.31;4959621;29;20051;-87
2022/04/03 02:39:36;;;;;;;8.07;7.28;;;;;;;2.13;76.85;96676.00;4959343;28;20051;-91
2022/04/03 02:42:05;;;;;;;9.10;7.40;;;;;;;2.13;76.58;96683.72;4959751;28;20047;-88
2022/04/03 02:44:34;;;;;;;9.23;7.72;;;;;;;2.15;76.32;96679.28;4958843;28;20047;-91
2022/04/03 02:47:02;;;;;;;10.43;7.55;;;;;;;2.16;75.27;96674.94;4958641;28;20047;-86
2022/04/03 02:49:30;;;;;;;10.27;7.78;;;;;;;2.17;75.49;96681.72;4959469;28;20075;-86
2022/04/03 02:51:58;;;;;;;10.43;7.68;;;;;;;2.15;75.69;96686.19;4959161;28;20057;-88
2022/04/03 02:54:26;;;;;;;9.38;7.88;;;;;;;2.12;76.11;96683.84;4959466;28;20141;-87
2022/04/03 02:56:53;;;;;;;9.18;7.47;;;;;;;2.12;76.66;96686.41;4959258;28;20083;-87
2022/04/03 02:59:21;;;;;;;10.55;8.10;;;;;;;2.10;76.20;96691.72;4958409;28;20066;-87
2022/04/03 03:01:50;;;;;;;13.35;8.52;;;;;;;2.10;76.88;96690.88;4958654;28;20073;-86
2022/04/03 03:04:18;;;;;;;9.90;8.30;;;;;;;2.09;76.90;96695.22;4959530;28;20070;-83
2022/04/03 03:06:46;;;;;;;10.60;7.60;;;;;;;2.08;76.28;96692.75;4957424;28;20573;-87
2022/04/03 03:09:14;;;;;;;9.75;7.97;;;;;;;2.05;76.12;96694.63;4958216;28;20266;-87
2022/04/03 03:11:42;;;;;;;9.23;7.93;;;;;;;2.05;76.29;96694.63;4958239;28;20059;-87
2022/04/03 03:14:10;;;;;;;9.70;8.25;;;;;;;2.08;76.40;96692.75;4958142;28;20498;-84
2022/04/03 03:16:38;;;;;;;10.25;7.55;;;;;;;2.08;75.74;96690.19;4957045;28;20133;-84
2022/04/03 03:19:08;;;;;;;11.73;8.07;;;;;;;2.08;76.04;96690.19;4957370;28;20572;-82
2022/04/03 03:21:36;;;;;;;12.95;9.18;;;;;;;2.10;76.13;96691.72;4957331;28;20468;-85
2022/04/03 03:24:04;;;;;;;11.07;7.72;;;;;;;2.09;75.89;96689.25;4957461;28;20086;-86
2022/04/03 03:26:32;;;;;;;11.20;9.25;;;;;;;2.05;75.61;96692.06;4956799;28;20557;-82
2022/04/03 03:29:00;;;;;;;11.75;8.98;;;;;;;2.04;75.66;96693.03;4957860;28;20110;-85
2022/04/03 03:31:28;;;;;;;11.30;8.82;;;;;;;2.03;75.95;96695.72;4957455;28;20568;-82
2022/04/03 03:33:56;;;;;;;10.43;8.38;;;;;;;2.03;75.99;96698.28;4956921;28;20043;-84
2022/04/03 03:36:25;;;;;;;12.00;8.48;;;;;;;2.01;75.61;96702.75;4956763;28;20082;-83
2022/04/03 03:38:54;;;;;;;10.75;7.93;;;;;;;1.97;75.96;96703.97;4957261;28;20515;-85
2022/04/03 03:41:21;;;;;;;11.45;8.02;;;;;;;1.95;76.54;96698.13;4956854;28;20059;-81
2022/04/03 03:43:49;;;;;;;9.20;7.65;;;;;;;1.92;76.46;96696.59;4956970;28;20106;-85
2022/04/03 03:46:17;;;;;;;8.32;7.00;;;;;;;1.88;75.77;96697.81;4956368;28;20417;-81
2022/04/03 03:48:45;;;;;;;8.57;7.45;;;;;;;1.86;76.33;96699.69;4956652;28;20052;-80
2022/04/03 03:51:12;;;;;;;10.07;8.20;;;;;;;1.88;76.41;96708.09;4956914;28;20490;-85
2022/04/03 03:53:41;;;;;;;12.60;8.90;;;;;;;1.88;77.02;96702.94;4956646;28;20056;-84
2022/04/03 03:56:09;;;;;;;11.35;8.73;;;;;;;1.88;76.94;96708.09;4957303;29;20055;-85
2022/04/03 03:58:37;;;;;;;11.90;8.82;;;;;;;1.88;76.64;96705.53;4957668;28;20081;-89
2022/04/03 04:01:04;;;;;;;9.32;7.43;;;;;;;1.85;75.72;96703.19;4957945;29;20063;-86
2022/04/03 04:03:32;;;;;;;10.93;7.90;;;;;;;1.85;75.99;96711.72;4957890;28;20058;-88
2022/04/03 04:06:00;;;;;;;9.70;7.55;;;;;;;1.89;76.54;96708.91;4956853;28;20078;-86
2022/04/03 04:08:28;;;;;;;9.32;7.72;;;;;;;1.91;76.68;96718.13;4957466;28;20151;-84
2022/04/03 04:10:58;;;;;;;10.98;8.20;;;;;;;1.91;76.71;96719.88;4957694;29;20134;-87
2022/04/03 04:13:31;;;;;;;11.13;7.10;;;;;;;1.92;75.97;96724.09;4957128;29;20051;-82
2022/04/03 04:15:59;;;;;;;13.23;9.05;;;;;;;1.91;76.13;96720.69;4958124;28;20051;-89
2022/04/03 04:18:27;;;;;;;9.73;7.55;;;;;;;1.93;76.54;96720.59;4961277;28;20063;-90
2022/04/03 04:20:56;;;;;;;10.23;7.47;;;;;;;1.93;76.31;96726.53;4962000;28;20071;-89
2022/04/03 04:23:24;;;;;;;9.35;7.70;;;;;;;1.92;75.98;96731.81;4962057;29;20055;-89
2022/04/03 04:25:51;;;;;;;9.35;7.03;;;;;;;1.90;75.19;96724.19;4961715;28;20062;-88
2022/04/03 04:28:20;;;;;;;10.77;9.07;;;;;;;1.88;75.74;96733.81;4963994;29;20051;-90
2022/04/03 04:30:48;;;;;;;10.25;7.85;;;;;;;1.87;75.59;96732.19;4963450;29;20054;-89
2022/04/03 04:33:15;;;;;;;11.18;7.45;;;;;;;1.87;75.84;96732.19;4962522;28;20739;-87
2022/04/03 04:35:43;;;;;;;12.93;9.30;;;;;;;1.86;76.30;96735.69;4961595;28;20074;-86
2022/04/03 04:38:11;;;;;;;11.02;8.10;;;;;;;1.87;76.18;96737.31;4961828;28;20054;-91
2022/04/03 04:40:39;;;;;;;13.30;9.48;;;;;;;1.86;76.19;96735.69;4961768;28;20059;-89
2022/04/03 04:43:06;;;;;;;10.15;7.75;;;;;;;1.87;76.14;96741.66;4961215;28;20057;-88
2022/04/03 04:45:36;;;;;;;11.43;8.27;;;;;;;1.83;75.13;96746.22;4960712;28;20055;-89
2022/04/03 04:48:04;;;;;;;10.30;7.95;;;;;;;1.78;75.47;96751.72;4960340;29;20055;-90
2022/04/03 04:50:32;;;;;;;8.50;6.90;;;;;;;1.73;74.94;96745.31;4961079;29;20067;-88
2022/04/03 04:53:00;;;;;;;10.77;8.20;;;;;;;1.72;75.57;96748.84;4961055;28;20051;-91
2022/04/03 04:55:27;;;;;;;11.65;8.07;;;;;;;1.70;74.55;96750.72;4962001;28;20050;-87
2022/04/03 04:57:57;;;;;;;8.93;7.57;;;;;;;1.62;73.55;96749.59;4962647;28;20063;-89
2022/04/03 05:00:26;;;;;;;10.77;7.55;;;;;;;1.55;73.79;96756.16;4963667;29;20130;-89
2022/04/03 05:02:56;;;;;;;9.48;7.63;;;;;;;1.52;75.27;96756.38;4962360;28;20062;-89
2022/04/03 05:05:24;;;;;;;11.27;8.20;;;;;;;1.56;75.89;96762.09;4961930;28;20130;-90
2022/04/03 05:07:55;;;;;;;8.75;6.95;;;;;;;1.51;74.22;96759.91;4961776;28;20062;-89
2022/04/03 05:10:24;;;;;;;10.27;7.72;;;;;;;1.43;74.01;96762.25;4962135;29;20058;-89
2022/04/03 05:12:52;;;;;;;9.48;7.55;;;;;;;1.40;74.36;96765.06;4961985;29;20047;-89
2022/04/03 05:15:20;;;;;;;8.77;7.50;;;;;;;1.39;74.38;96763.44;4962173;29;20138;-89
2022/04/03 05:17:48;;;;;;;10.50;8.02;;;;;;;1.40;75.67;96763.31;4961341;28;20047;-91
2022/04/03 05:20:18;;;;;;;14.40;8.65;;;;;;;1.44;76.49;96771.59;4962224;28;20421;-90
2022/04/03 05:22:45;;;;;;;10.65;8.23;;;;;;;1.48;76.56;96775.56;4962174;28;20059;-89
2022/04/03 05:25:13;;;;;;;11.45;8.52;;;;;;;1.51;77.26;96777.91;4961509;28;20051;-85
2022/04/03 05:27:43;;;;;;;11.38;8.23;;;;;;;1.56;77.82;96780.91;4960837;28;20051;-86
2022/04/03 05:30:13;;;;;;;10.05;8.02;;;;;;;1.60;77.35;96779.75;4961425;28;20054;-88
2022/04/03 05:32:41;;;;;;;11.45;8.52;;;;;;;1.65;77.18;96782.75;4961023;29;20510;-86
2022/04/03 05:35:11;;;;;;;9.15;7.30;;;;;;;1.66;76.63;96788.72;4960919;28;20098;-89
2022/04/03 05:37:44;;;;;;;10.60;7.68;;;;;;;1.68;76.84;96784.25;4960198;29;20130;-88
2022/04/03 05:40:15;;;;;;;10.15;7.75;;;;;;;1.70;76.54;96797.00;4961129;28;20054;-89
2022/04/03 05:42:42;;;;;;;10.52;7.95;;;;;;;1.71;76.52;96793.50;4961513;29;20074;-89
2022/04/03 05:45:10;;;;;;;9.82;7.03;;;;;;;1.70;76.44;96791.88;4961421;29;20058;-88
2022/04/03 05:47:39;;;;;;;10.57;8.35;;;;;;;1.68;76.21;96791.16;4960992;28;20058;-88
2022/04/03 05:50:11;;;;;;;10.35;8.25;;;;;;;1.68;76.47;96794.53;4961169;29;20061;-89
2022/04/03 05:52:40;;;;;;;13.48;8.48;;;;;;;1.70;76.83;96799.56;4960952;28;20049;-88
2022/04/03 05:55:10;;;;;;;9.60;7.97;;;;;;;1.72;76.08;96801.09;4960740;28;20051;-90
2022/04/03 05:57:39;;;;;;;10.50;7.80;;;;;;;1.74;76.00;96800.97;4962601;29;20047;-84
2022/04/03 06:00:12;;;;;;;11.05;7.90;;;;;;;1.74;76.15;96798.41;4969211;28;20494;-89
2022/04/03 06:02:59;;;;;;;8.63;6.45;;;;;;;1.71;73.73;96798.66;4967472;29;20051;-90
2022/04/03 06:05:28;;;;;;;11.82;7.55;;;;;;;1.69;75.40;96803.91;4962078;29;20114;-89
2022/04/03 06:08:00;;;;;;;10.18;6.03;;;;;;;1.64;74.58;96812.00;4962067;29;20433;-90
2022/04/03 06:10:30;;;;;;;8.68;7.30;;;;;;;1.60;73.86;96813.16;4961856;28;20130;-88
2022/04/03 06:12:59;;;;;;;9.63;7.63;;;;;;;1.56;74.82;96811.78;4961083;28;20505;-88
2022/04/03 06:15:31;;;;;;;9.50;6.72;;;;;;;1.56;75.54;96819.47;4961237;28;20465;-89
2022/04/03 06:17:59;;;;;;;9.50;6.93;;;;;;;1.57;75.25;96813.38;4959575;29;20055;-89
2022/04/03 06:20:26;;;;;;;10.88;7.95;;;;;;;1.62;75.69;96816.44;4960270;29;20055;-88
2022/04/03 06:22:54;;;;;;;9.75;7.28;;;;;;;1.67;75.50;96820.41;4960238;28;20082;-87
2022/04/03 06:25:22;;;;;;;10.35;8.00;;;;;;;1.71;75.97;96820.03;4960832;28;20146;-87
2022/04/03 06:27:52;;;;;;;11.10;8.65;;;;;;;1.76;75.70;96827.38;4959215;28;20055;-87
2022/04/03 06:30:21;;;;;;;12.45;8.65;;;;;;;1.77;75.60;96826.44;4960397;28;20071;-87
2022/04/03 06:32:49;;;;;;;9.23;7.15;;;;;;;1.77;75.52;96829.84;4959544;28;20051;-86
2022/04/03 06:35:16;;;;;;;9.80;7.07;;;;;;;1.78;75.28;96826.31;4959801;29;20090;-89
2022/04/03 06:37:44;;;;;;;8.18;6.75;;;;;;;1.79;74.05;96832.28;4959187;28;20055;-86
2022/04/03 06:40:13;;;;;;;10.40;7.72;;;;;;;1.78;74.15;96833.22;4958848;28;20063;-89
2022/04/03 06:42:41;;;;;;;7.25;6.43;;;;;;;1.80;73.33;96833.94;4959890;28;20517;-88
2022/04/03 06:45:11;;;;;;;8.35;7.35;;;;;;;1.81;74.02;96840.69;4960257;28;20061;-89
2022/04/03 06:47:38;;;;;;;7.85;6.82;;;;;;;1.86;74.88;96843.75;4959023;28;20047;-84
2022/04/03 06:50:07;;;;;;;9.43;6.90;;;;;;;1.89;73.24;96848.63;4958919;28;20520;-89
2022/04/03 06:52:36;;;;;;;9.75;7.32;;;;;;;1.93;73.98;96847.44;4960175;28;20059;-89
2022/04/03 06:55:04;;;;;;;9.32;7.00;;;;;;;2.01;74.03;96857.13;4959085;28;20051;-87
2022/04/03 06:57:32;;;;;;;8.32;6.63;;;;;;;2.08;73.66;96853.13;4958758;29;20139;-86
2022/04/03 06:59:59;;;;;;;10.38;8.20;;;;;;;2.16;74.27;96860.22;4959242;28;20058;-86
2022/04/03 07:02:29;;;;;;;10.93;7.57;;;;;;;2.26;74.92;96861.13;4959472;28;20082;-88
2022/04/03 07:04:57;;;;;;;10.45;7.80;;;;;;;2.34;74.68;96858.78;4958813;29;20062;-84
2022/04/03 07:07:25;;;;;;;11.85;8.32;;;;;;;2.44;74.84;96864.78;4958620;28;20070;-88
2022/04/03 07:09:54;;;;;;;9.65;6.43;;;;;;;2.51;73.03;96856.56;4959436;29;20066;-88
2022/04/03 07:12:23;;;;;;;11.30;7.63;;;;;;;2.56;74.07;96857.84;4959109;28;20134;-88
2022/04/03 07:14:51;;;;;;;10.50;8.10;;;;;;;2.66;74.49;96863.84;4959278;28;20058;-87
2022/04/03 07:17:19;;;;;;;9.63;6.20;;;;;;;2.75;71.69;96864.84;4958192;28;20141;-86
2022/04/03 07:19:48;;;;;;;9.68;7.63;;;;;;;2.79;72.38;96870.56;4959604;28;20066;-89
2022/04/03 07:22:16;;;;;;;9.82;6.55;;;;;;;2.89;72.98;96871.47;4959752;28;20067;-81
2022/04/03 07:24:44;;;;;;;8.30;6.65;;;;;;;3.02;72.97;96874.66;4959222;28;20125;-87
2022/04/03 07:27:12;;;;;;;8.73;6.35;;;;;;;3.13;71.54;96872.91;4960497;28;20047;-88
2022/04/03 07:29:39;;;;;;;6.28;5.53;;;;;;;3.15;70.57;96879.59;4961571;28;20074;-90
2022/04/03 07:32:08;;;;;;;6.18;5.05;;;;;;;3.17;67.45;96882.03;4960074;28;20138;-87
2022/04/03 07:34:36;;;;;;;10.40;6.60;;;;;;;3.18;69.53;96878.53;4959749;28;20058;-88
2022/04/03 07:37:06;;;;;;;8.15;5.82;;;;;;;3.26;69.03;96882.09;4959661;28;20336;-89
2022/04/03 07:39:35;;;;;;;10.23;5.82;;;;;;;3.37;69.11;96880.34;4959563;29;20122;-91
2022/04/03 07:42:03;;;;;;;6.38;5.15;;;;;;;3.39;65.73;96886.19;4959347;29;20059;-84
2022/04/03 07:44:31;;;;;;;6.80;5.88;;;;;;;3.42;67.60;96891.13;4959109;28;20059;-87
2022/04/03 07:46:59;;;;;;;6.35;4.88;;;;;;;3.49;66.92;96897.38;4958636;28;20114;-86
2022/04/03 07:49:27;;;;;;;6.68;5.72;;;;;;;3.56;64.88;96889.94;4958055;28;20134;-90
2022/04/03 07:51:57;;;;;;;6.47;5.82;;;;;;;3.63;65.05;96899.59;4959063;28;20289;-85
2022/04/03 07:54:27;;;;;;;6.50;5.55;;;;;;;3.78;66.77;96899.22;4962260;28;20053;-89
2022/04/03 07:56:54;;;;;;;7.63;5.95;;;;;;;3.96;67.82;96900.25;4962350;28;20481;-87
2022/04/03 07:59:22;;;;;;;7.90;5.50;;;;;;;4.09;66.26;96905.97;4963946;28;20051;-87
2022/04/03 08:01:50;;;;;;;7.10;5.47;;;;;;;4.20;65.90;96909.34;4964181;28;20075;-89
2022/04/03 08:04:19;;;;;;;9.45;6.70;;;;;;;4.40;67.44;96911.03;4963845;28;20122;-88
2022/04/03 08:06:47;;;;;;;4.93;4.05;;;;;;;4.54;63.75;96918.34;4964742;28;20609;-90
2022/04/03 08:09:18;;;;;;;6.25;4.50;;;;;;;4.68;63.67;96918.88;4966046;29;20054;-89
2022/04/03 08:11:48;;;;;;;6.47;4.68;;;;;;;4.81;60.88;96926.38;4968626;28;20066;-89
2022/04/03 08:14:16;;;;;;;5.30;4.50;;;;;;;4.90;62.21;96928.97;4965711;28;20051;-84
2022/04/03 08:16:45;;;;;;;5.60;4.60;;;;;;;5.02;63.84;96926.22;4965453;28;20070;-87
2022/04/03 08:19:13;;;;;;;6.88;5.22;;;;;;;5.18;65.33;96929.03;4965003;28;20158;-89
2022/04/03 08:21:43;;;;;;;7.07;4.57;;;;;;;5.37;64.49;96928.97;4965257;28;20528;-87
2022/04/03 08:24:14;;;;;;;4.72;4.32;;;;;;;5.55;64.35;96933.41;4965625;28;20051;-89
2022/04/03 18:15:18;;;;;;;4.28;3.38;;;;;;;3.31;50.31;96995.16;4942073;29;20040;-84
2022/04/03 18:18:07;;;;;;;3.47;3.13;;;;;;;3.19;49.76;96988.41;4928528;29;20032;-86
2022/04/03 18:20:48;;;;;;;12.98;7.03;;;;;;;3.05;50.14;96992.13;4943290;29;20040;-88
2022/04/03 18:23:18;;;;;;;15.63;6.80;;;;;;;2.87;49.93;97004.75;4942064;29;20097;-87
2022/04/03 18:36:27;;;;;;;5.60;3.97;;;;;;;2.22;51.33;97011.59;5478988;23;20040;-87
2022/04/03 18:38:57;;;;;;;7.95;5.45;;;;;;;2.14;51.18;97011.38;4962330;29;20095;-86
2022/04/03 18:41:25;;;;;;;11.18;7.80;;;;;;;2.08;51.89;97012.69;4962066;29;20036;-85
2022/04/03 18:43:53;;;;;;;7.65;5.35;;;;;;;2.00;51.78;97015.81;4961133;28;20674;-87
2022/04/03 18:46:21;;;;;;;5.75;4.50;;;;;;;1.92;51.76;97015.59;4960598;28;20103;-87
2022/04/03 18:48:49;;;;;;;5.18;3.42;;;;;;;1.85;51.91;97024.72;4961019;28;20062;-86
2022/04/03 18:51:18;;;;;;;3.50;2.97;;;;;;;1.72;52.29;97017.13;4961004;28;20099;-85
2022/04/03 18:53:46;;;;;;;5.38;4.10;;;;;;;1.65;52.17;97016.75;4960976;28;20055;-87
2022/04/03 18:56:16;;;;;;;7.18;4.75;;;;;;;1.57;52.74;97021.66;4960572;28;20039;-86
2022/04/03 18:58:46;;;;;;;9.27;4.18;;;;;;;1.54;53.04;97019.31;4961197;28;20060;-85
2022/04/03 19:01:14;;;;;;;4.68;3.45;;;;;;;1.51;52.82;97023.88;4960804;28;20081;-86
2022/04/03 19:03:42;;;;;;;4.07;3.58;;;;;;;1.43;52.73;97027.84;4960735;28;20055;-87
2022/04/03 19:06:13;;;;;;;5.90;4.07;;;;;;;1.35;52.77;97021.63;4960403;28;20058;-85
2022/04/03 19:08:41;;;;;;;4.82;3.83;;;;;;;1.26;53.02;97022.31;4960665;28;20043;-87
2022/04/03 19:11:13;;;;;;;4.57;3.85;;;;;;;1.17;53.26;97027.19;4960971;28;20036;-86
2022/04/03 19:13:44;;;;;;;8.10;4.93;;;;;;;1.02;53.44;97033.44;4961050;28;20043;-84
2022/04/03 19:16:12;;;;;;;5.03;3.97;;;;;;;0.88;53.67;97023.38;4960566;28;20059;-86
2022/04/03 19:18:41;;;;;;;8.13;4.93;;;;;;;0.82;54.35;97028.00;4960889;28;20091;-86
2022/04/03 19:21:10;;;;;;;8.52;5.65;;;;;;;0.76;54.45;97038.72;4960722;28;20051;-87
2022/04/03 19:23:39;;;;;;;9.05;5.68;;;;;;;0.68;54.69;97033.31;4960552;28;20098;-85
2022/04/03 19:26:08;;;;;;;7.30;5.63;;;;;;;0.63;55.00;97022.53;4959796;28;20044;-88
2022/04/03 19:28:36;;;;;;;8.32;5.95;;;;;;;0.61;55.05;97025.25;4960374;28;20038;-86
2022/04/03 19:31:06;;;;;;;8.68;6.32;;;;;;;0.51;55.76;97026.00;4960187;28;20099;-87
2022/04/03 19:33:34;;;;;;;9.32;5.93;;;;;;;0.41;55.96;97033.50;4959980;28;20115;-86
2022/04/03 19:36:02;;;;;;;9.23;5.95;;;;;;;0.35;55.99;97031.38;4959231;28;20036;-86
2022/04/03 19:38:30;;;;;;;13.95;8.65;;;;;;;0.31;56.28;97033.34;4959919;28;20062;-86
2022/04/03 19:40:58;;;;;;;9.20;5.97;;;;;;;0.30;56.32;97036.84;4959593;28;20099;-87
2022/04/03 19:43:27;;;;;;;7.55;5.30;;;;;;;0.23;56.42;97042.50;4959819;28;20031;-88
2022/04/03 19:45:54;;;;;;;8.23;4.95;;;;;;;0.17;56.54;97036.03;4958994;28;20032;-86
2022/04/03 19:48:24;;;;;;;6.95;4.90;;;;;;;0.12;56.94;97038.13;4961853;28;20056;-85
2022/04/03 19:50:52;;;;;;;7.45;5.32;;;;;;;0.08;56.48;97042.63;4963430;28;20099;-87
2022/04/03 19:53:20;;;;;;;9.40;4.70;;;;;;;0.05;56.60;97036.91;4963339;28;20059;-85
2022/04/03 19:55:49;;;;;;;6.85;4.85;;;;;;;0.04;56.66;97040.38;4962800;28;20035;-87
2022/04/03 19:58:20;;;;;;;7.32;4.47;;;;;;;-0.03;56.71;97040.81;4963308;28;20051;-87
2022/04/03 20:00:48;;;;;;;6.88;4.93;;;;;;;-0.06;57.54;97048.72;4962413;29;20120;-86
2022/04/03 20:03:17;;;;;;;7.90;5.03;;;;;;;-0.03;58.22;97047.69;4961589;29;20036;-87
2022/04/03 20:05:46;;;;;;;7.03;4.78;;;;;;;-0.07;57.59;97043.69;4960843;29;20047;-88
2022/04/03 20:08:14;;;;;;;9.13;4.90;;;;;;;-0.17;57.47;97045.25;4962395;28;20044;-85
2022/04/03 20:10:42;;;;;;;10.45;5.80;;;;;;;-0.21;57.57;97042.06;4960962;29;20111;-86
2022/04/03 20:13:09;;;;;;;7.97;5.28;;;;;;;-0.27;58.03;97040.72;4960943;29;20067;-86
2022/04/03 20:15:39;;;;;;;7.70;5.28;;;;;;;-0.26;58.03;97044.13;4962619;28;20107;-87
2022/04/03 20:18:11;;;;;;;8.35;5.20;;;;;;;-0.28;57.92;97043.41;4962469;28;20103;-86
2022/04/03 20:20:39;;;;;;;8.45;4.88;;;;;;;-0.33;58.05;97048.00;4963344;28;20103;-87
2022/04/03 20:23:08;;;;;;;6.25;4.90;;;;;;;-0.41;58.70;97045.97;4963308;28;20042;-86
2022/04/03 20:25:36;;;;;;;9.10;6.10;;;;;;;-0.34;59.23;97039.50;4963143;28;20094;-88
2022/04/03 20:28:04;;;;;;;11.20;5.47;;;;;;;-0.36;58.53;97040.53;4962580;28;20031;-88
2022/04/03 20:30:31;;;;;;;9.48;5.47;;;;;;;-0.39;59.84;97044.13;4962721;28;20032;-86
2022/04/03 20:33:01;;;;;;;6.82;4.60;;;;;;;-0.42;59.45;97045.16;4962708;28;20032;-87
2022/04/03 20:35:30;;;;;;;6.38;4.50;;;;;;;-0.44;59.51;97041.88;4962463;28;20046;-85
2022/04/03 20:37:58;;;;;;;6.28;3.95;;;;;;;-0.43;59.69;97047.81;4962203;28;20064;-85
2022/04/03 20:40:28;;;;;;;7.25;4.18;;;;;;;-0.42;59.17;97047.72;4962517;28;20040;-86
2022/04/03 20:42:55;;;;;;;5.30;4.25;;;;;;;-0.44;59.63;97058.97;4962438;28;20036;-87
2022/04/03 20:45:23;;;;;;;9.43;4.95;;;;;;;-0.43;59.00;97052.94;4962568;28;20051;-87
2022/04/03 20:47:51;;;;;;;6.75;4.03;;;;;;;-0.45;58.43;97047.91;4962355;28;20036;-86
2022/04/03 20:50:19;;;;;;;6.57;3.78;;;;;;;-0.51;58.74;97048.31;4962671;28;20111;-87
2022/04/03 20:52:47;;;;;;;6.35;4.13;;;;;;;-0.53;58.76;97049.34;4962438;28;20060;-87
2022/04/03 20:55:18;;;;;;;6.07;4.28;;;;;;;-0.57;59.05;97051.28;4961818;28;20067;-87
2022/04/03 20:57:47;;;;;;;7.03;4.95;;;;;;;-0.58;59.50;97054.78;4961515;28;20055;-87
2022/04/03 21:00:16;;;;;;;7.50;4.82;;;;;;;-0.56;60.06;97047.81;4961128;28;20095;-85
2022/04/03 21:02:44;;;;;;;9.52;5.07;;;;;;;-0.52;60.88;97059.50;4962132;28;20058;-87
2022/04/03 21:05:12;;;;;;;7.82;4.70;;;;;;;-0.50;59.65;97052.53;4961596;28;20038;-87
2022/04/03 21:07:40;;;;;;;7.25;4.85;;;;;;;-0.52;60.53;97049.25;4961339;28;20056;-87
2022/04/03 21:10:08;;;;;;;7.32;4.40;;;;;;;-0.57;60.26;97060.72;4961787;28;20070;-86
2022/04/03 21:12:35;;;;;;;6.65;4.10;;;;;;;-0.57;60.90;97051.28;4961484;28;20058;-85
2022/04/03 21:15:05;;;;;;;8.52;4.68;;;;;;;-0.57;63.68;97066.66;4961275;28;20055;-84
2022/04/03 21:17:33;;;;;;;5.45;4.00;;;;;;;-0.52;64.21;97056.94;4960646;28;20032;-84
2022/04/03 21:20:01;;;;;;;6.03;4.25;;;;;;;-0.49;62.80;97055.91;4961305;28;20039;-85
2022/04/03 21:22:29;;;;;;;5.43;4.40;;;;;;;-0.54;63.44;97057.97;4960866;28;20048;-85
2022/04/03 21:24:56;;;;;;;5.82;4.03;;;;;;;-0.55;62.86;97051.19;4961109;28;20062;-85
2022/04/03 21:27:24;;;;;;;5.65;3.72;;;;;;;-0.62;61.33;97053.34;4960599;29;20103;-86
2022/04/03 21:29:52;;;;;;;4.47;3.83;;;;;;;-0.69;61.88;97058.03;4960849;28;20036;-85
2022/04/03 21:32:21;;;;;;;5.43;4.00;;;;;;;-0.70;62.07;97056.41;4960815;28;20032;-85
2022/04/03 21:34:51;;;;;;;5.72;4.50;;;;;;;-0.71;61.46;97062.44;4960226;29;20056;-88
2022/04/03 21:37:18;;;;;;;7.15;4.30;;;;;;;-0.80;62.07;97049.44;4959743;28;20035;-85
2022/04/03 21:39:46;;;;;;;6.78;4.43;;;;;;;-0.81;63.71;97052.88;4959586;29;20055;-87
2022/04/03 21:42:14;;;;;;;5.63;3.80;;;;;;;-0.77;63.12;97049.22;4959224;29;20031;-86
2022/04/03 21:44:41;;;;;;;6.47;3.90;;;;;;;-0.84;62.14;97052.16;4959595;28;20119;-85
2022/04/03 21:47:09;;;;;;;4.50;3.28;;;;;;;-0.87;62.22;97049.81;4958489;28;20115;-88
2022/04/03 21:49:38;;;;;;;5.65;3.83;;;;;;;-0.92;62.01;97056.16;4958761;29;20058;-86
2022/04/03 21:52:06;;;;;;;5.53;3.55;;;;;;;-0.97;61.64;97059.00;4958688;29;20052;-85
2022/04/03 21:54:34;;;;;;;6.18;3.90;;;;;;;-0.99;62.45;97065.16;4957836;29;20055;-85
2022/04/03 21:57:02;;;;;;;6.13;3.80;;;;;;;-1.07;62.92;97057.97;4957028;29;20052;-85
2022/04/03 21:59:30;;;;;;;4.85;3.47;;;;;;;-1.10;62.13;97061.53;4957595;29;20075;-85
2022/04/03 22:01:57;;;;;;;6.18;3.67;;;;;;;-1.20;62.01;97067.31;4957838;29;20055;-87
2022/04/03 22:04:25;;;;;;;6.20;3.90;;;;;;;-1.25;61.75;97068.47;4958067;29;20067;-89
2022/04/03 22:06:54;;;;;;;5.60;4.15;;;;;;;-1.31;62.63;97063.72;4959333;29;20120;-87
2022/04/03 22:09:22;;;;;;;5.60;4.00;;;;;;;-1.33;62.23;97070.69;4958371;29;20048;-91
2022/04/03 22:11:50;;;;;;;6.20;4.15;;;;;;;-1.35;62.82;97072.50;4957278;29;20115;-87
2022/04/03 22:14:17;;;;;;;6.53;4.45;;;;;;;-1.32;63.99;97071.50;4957443;29;20051;-89
2022/04/03 22:16:45;;;;;;;5.50;4.22;;;;;;;-1.32;63.15;97072.31;4956976;29;20051;-90
2022/04/03 22:19:13;;;;;;;7.65;5.00;;;;;;;-1.33;62.78;97068.13;4959230;29;20570;-89
2022/04/03 22:21:41;;;;;;;8.38;5.20;;;;;;;-1.35;62.60;97067.41;4957638;29;20058;-90
2022/04/03 22:24:10;;;;;;;6.28;4.53;;;;;;;-1.48;61.90;97059.66;4958060;29;20308;-89
2022/04/03 22:26:38;;;;;;;7.43;4.70;;;;;;;-1.60;61.86;97064.72;4957751;29;20071;-89
2022/04/03 22:29:06;;;;;;;6.32;4.38;;;;;;;-1.66;62.22;97064.19;4959100;28;20111;-87
2022/04/03 22:31:33;;;;;;;5.72;3.72;;;;;;;-1.68;62.10;97063.47;4959400;28;20099;-89
2022/04/03 22:34:01;;;;;;;6.90;4.63;;;;;;;-1.74;61.50;97056.16;4959396;29;20031;-88